sensor_id;sensor_type;location;lat;lon;timestamp;P1;durP1;ratioP1;P2;durP2;ratioP2
11211;SDS011;5663;50.864;12.096;2023-09-30T00:01:42;5.37;;;3.03;;
11211;SDS011;5663;50.864;12.096;2023-09-30T00:04:10;3.83;;;3.10;;
11211;SDS011;5663;50.864;12.096;2023-09-30T00:06:38;5.23;;;3.33;;
11211;SDS011;5663;50.864;12.096;2023-09-30T00:09:09;5.60;;;3.20;;
11211;SDS011;5663;50.864;12.096;2023-09-30T00:11:40;4.77;;;3.40;;
11211;SDS011;5663;50.864;12.096;2023-09-30T00:14:09;2.80;;;2.60;;
11211;SDS011;5663;50.864;12.096;2023-09-30T00:16:44;6.50;;;3.63;;
11211;SDS011;5663;50.864;12.096;2023-09-30T00:19:23;4.27;;;3.63;;
11211;SDS011;5663;50.864;12.096;2023-09-30T00:21:56;6.10;;;3.60;;
11211;SDS011;5663;50.864;12.096;2023-09-30T00:24:55;4.60;;;3.63;;
11211;SDS011;5663;50.864;12.096;2023-09-30T00:27:23;4.03;;;3.50;;
11211;SDS011;5663;50.864;12.096;2023-09-30T00:29:51;4.97;;;3.93;;
11211;SDS011;5663;50.864;12.096;2023-09-30T00:32:26;4.20;;;3.80;;
11211;SDS011;5663;50.864;12.096;2023-09-30T00:34:56;7.07;;;4.53;;
11211;SDS011;5663;50.864;12.096;2023-09-30T00:37:37;5.57;;;3.70;;
11211;SDS011;5663;50.864;12.096;2023-09-30T00:40:06;7.50;;;4.50;;
11211;SDS011;5663;50.864;12.096;2023-09-30T00:42:37;5.40;;;4.40;;
11211;SDS011;5663;50.864;12.096;2023-09-30T00:45:06;5.20;;;4.30;;
11211;SDS011;5663;50.864;12.096;2023-09-30T00:47:37;5.40;;;4.70;;
11211;SDS011;5663;50.864;12.096;2023-09-30T00:50:05;5.70;;;4.37;;
11211;SDS011;5663;50.864;12.096;2023-09-30T00:52:36;5.77;;;4.57;;
11211;SDS011;5663;50.864;12.096;2023-09-30T00:55:05;5.03;;;4.30;;
11211;SDS011;5663;50.864;12.096;2023-09-30T00:57:36;5.53;;;4.30;;
11211;SDS011;5663;50.864;12.096;2023-09-30T01:00:07;5.67;;;4.10;;
11211;SDS011;5663;50.864;12.096;2023-09-30T01:02:42;7.33;;;5.00;;
11211;SDS011;5663;50.864;12.096;2023-09-30T01:05:10;4.90;;;4.40;;
11211;SDS011;5663;50.864;12.096;2023-09-30T01:07:41;6.70;;;4.27;;
11211;SDS011;5663;50.864;12.096;2023-09-30T01:10:12;6.73;;;5.13;;
11211;SDS011;5663;50.864;12.096;2023-09-30T01:12:40;6.67;;;4.97;;
11211;SDS011;5663;50.864;12.096;2023-09-30T01:15:08;5.37;;;4.33;;
11211;SDS011;5663;50.864;12.096;2023-09-30T01:17:36;5.37;;;4.63;;
11211;SDS011;5663;50.864;12.096;2023-09-30T01:20:06;6.70;;;5.27;;
11211;SDS011;5663;50.864;12.096;2023-09-30T01:22:38;7.23;;;4.57;;
11211;SDS011;5663;50.864;12.096;2023-09-30T01:25:07;4.93;;;4.40;;
11211;SDS011;5663;50.864;12.096;2023-09-30T01:27:35;6.50;;;5.80;;
11211;SDS011;5663;50.864;12.096;2023-09-30T01:30:03;9.00;;;6.30;;
11211;SDS011;5663;50.864;12.096;2023-09-30T01:32:40;6.37;;;5.53;;
11211;SDS011;5663;50.864;12.096;2023-09-30T01:35:08;8.97;;;6.47;;
11211;SDS011;5663;50.864;12.096;2023-09-30T01:37:38;6.27;;;5.67;;
11211;SDS011;5663;50.864;12.096;2023-09-30T01:40:06;10.53;;;6.57;;
11211;SDS011;5663;50.864;12.096;2023-09-30T01:42:38;7.80;;;5.90;;
11211;SDS011;5663;50.864;12.096;2023-09-30T01:45:06;7.53;;;6.20;;
11211;SDS011;5663;50.864;12.096;2023-09-30T01:47:34;7.17;;;5.97;;
11211;SDS011;5663;50.864;12.096;2023-09-30T01:50:02;8.90;;;6.13;;
11211;SDS011;5663;50.864;12.096;2023-09-30T01:52:30;6.50;;;5.80;;
11211;SDS011;5663;50.864;12.096;2023-09-30T01:55:00;7.50;;;4.60;;
11211;SDS011;5663;50.864;12.096;2023-09-30T01:57:27;6.43;;;4.50;;
11211;SDS011;5663;50.864;12.096;2023-09-30T01:59:55;23.40;;;4.33;;
11211;SDS011;5663;50.864;12.096;2023-09-30T02:02:22;7.63;;;3.83;;
11211;SDS011;5663;50.864;12.096;2023-09-30T02:04:52;5.93;;;3.70;;
11211;SDS011;5663;50.864;12.096;2023-09-30T02:07:21;7.20;;;3.70;;
11211;SDS011;5663;50.864;12.096;2023-09-30T02:09:49;5.77;;;3.70;;
11211;SDS011;5663;50.864;12.096;2023-09-30T02:12:24;8.30;;;3.73;;
11211;SDS011;5663;50.864;12.096;2023-09-30T02:14:52;4.93;;;3.20;;
11211;SDS011;5663;50.864;12.096;2023-09-30T02:17:19;4.60;;;3.30;;
11211;SDS011;5663;50.864;12.096;2023-09-30T02:19:48;9.50;;;3.60;;
11211;SDS011;5663;50.864;12.096;2023-09-30T02:22:17;7.23;;;3.50;;
11211;SDS011;5663;50.864;12.096;2023-09-30T02:24:45;7.00;;;3.50;;
11211;SDS011;5663;50.864;12.096;2023-09-30T02:27:14;10.00;;;4.17;;
11211;SDS011;5663;50.864;12.096;2023-09-30T02:29:43;5.57;;;3.10;;
11211;SDS011;5663;50.864;12.096;2023-09-30T02:32:11;7.43;;;3.73;;
11211;SDS011;5663;50.864;12.096;2023-09-30T02:34:39;6.17;;;2.73;;
11211;SDS011;5663;50.864;12.096;2023-09-30T02:37:08;5.67;;;3.60;;
11211;SDS011;5663;50.864;12.096;2023-09-30T02:39:36;7.80;;;3.40;;
11211;SDS011;5663;50.864;12.096;2023-09-30T02:42:04;5.27;;;3.60;;
11211;SDS011;5663;50.864;12.096;2023-09-30T02:44:32;5.30;;;3.40;;
11211;SDS011;5663;50.864;12.096;2023-09-30T02:47:02;4.33;;;3.20;;
11211;SDS011;5663;50.864;12.096;2023-09-30T02:49:32;6.07;;;3.90;;
11211;SDS011;5663;50.864;12.096;2023-09-30T02:52:00;5.70;;;3.70;;
11211;SDS011;5663;50.864;12.096;2023-09-30T02:54:30;9.67;;;3.77;;
11211;SDS011;5663;50.864;12.096;2023-09-30T02:56:58;4.37;;;3.50;;
11211;SDS011;5663;50.864;12.096;2023-09-30T02:59:26;7.67;;;3.57;;
11211;SDS011;5663;50.864;12.096;2023-09-30T03:01:54;6.70;;;3.60;;
11211;SDS011;5663;50.864;12.096;2023-09-30T03:04:23;6.97;;;3.80;;
11211;SDS011;5663;50.864;12.096;2023-09-30T03:06:54;8.93;;;3.90;;
11211;SDS011;5663;50.864;12.096;2023-09-30T03:09:23;6.70;;;3.77;;
11211;SDS011;5663;50.864;12.096;2023-09-30T03:11:51;8.97;;;3.53;;
11211;SDS011;5663;50.864;12.096;2023-09-30T03:14:22;5.67;;;3.50;;
11211;SDS011;5663;50.864;12.096;2023-09-30T03:16:51;4.67;;;3.20;;
11211;SDS011;5663;50.864;12.096;2023-09-30T03:19:18;4.07;;;3.07;;
11211;SDS011;5663;50.864;12.096;2023-09-30T03:21:47;19.37;;;4.30;;
11211;SDS011;5663;50.864;12.096;2023-09-30T03:24:15;6.93;;;3.50;;
11211;SDS011;5663;50.864;12.096;2023-09-30T03:26:43;4.27;;;3.20;;
11211;SDS011;5663;50.864;12.096;2023-09-30T03:29:11;7.10;;;3.40;;
11211;SDS011;5663;50.864;12.096;2023-09-30T03:31:39;7.20;;;4.20;;
11211;SDS011;5663;50.864;12.096;2023-09-30T03:34:07;7.33;;;3.40;;
11211;SDS011;5663;50.864;12.096;2023-09-30T03:36:35;17.20;;;4.57;;
11211;SDS011;5663;50.864;12.096;2023-09-30T03:39:04;6.17;;;3.17;;
11211;SDS011;5663;50.864;12.096;2023-09-30T03:41:35;5.93;;;3.07;;
11211;SDS011;5663;50.864;12.096;2023-09-30T03:44:21;8.07;;;3.50;;
11211;SDS011;5663;50.864;12.096;2023-09-30T03:47:07;4.97;;;2.77;;
11211;SDS011;5663;50.864;12.096;2023-09-30T03:49:34;6.67;;;3.17;;
11211;SDS011;5663;50.864;12.096;2023-09-30T03:52:04;5.00;;;3.00;;
11211;SDS011;5663;50.864;12.096;2023-09-30T03:54:33;6.17;;;3.30;;
11211;SDS011;5663;50.864;12.096;2023-09-30T03:57:01;6.20;;;3.10;;
11211;SDS011;5663;50.864;12.096;2023-09-30T03:59:29;6.53;;;3.27;;
11211;SDS011;5663;50.864;12.096;2023-09-30T04:01:57;5.27;;;3.40;;
11211;SDS011;5663;50.864;12.096;2023-09-30T04:04:24;7.73;;;3.77;;
11211;SDS011;5663;50.864;12.096;2023-09-30T04:06:53;6.13;;;2.90;;
11211;SDS011;5663;50.864;12.096;2023-09-30T04:09:20;7.43;;;3.40;;
11211;SDS011;5663;50.864;12.096;2023-09-30T04:11:50;5.73;;;3.13;;
11211;SDS011;5663;50.864;12.096;2023-09-30T04:14:18;6.70;;;3.27;;
11211;SDS011;5663;50.864;12.096;2023-09-30T04:16:47;9.00;;;3.43;;
11211;SDS011;5663;50.864;12.096;2023-09-30T04:19:14;5.50;;;3.47;;
11211;SDS011;5663;50.864;12.096;2023-09-30T04:21:42;9.03;;;3.57;;
11211;SDS011;5663;50.864;12.096;2023-09-30T04:24:09;3.87;;;2.60;;
11211;SDS011;5663;50.864;12.096;2023-09-30T04:26:37;7.43;;;2.93;;
11211;SDS011;5663;50.864;12.096;2023-09-30T04:29:07;5.70;;;2.90;;
11211;SDS011;5663;50.864;12.096;2023-09-30T04:31:36;6.27;;;3.47;;
11211;SDS011;5663;50.864;12.096;2023-09-30T04:34:05;8.27;;;3.47;;
11211;SDS011;5663;50.864;12.096;2023-09-30T04:36:33;6.30;;;3.40;;
11211;SDS011;5663;50.864;12.096;2023-09-30T04:39:01;4.40;;;2.70;;
11211;SDS011;5663;50.864;12.096;2023-09-30T04:41:30;6.60;;;3.07;;
11211;SDS011;5663;50.864;12.096;2023-09-30T04:43:57;6.97;;;2.97;;
11211;SDS011;5663;50.864;12.096;2023-09-30T04:46:27;4.70;;;2.80;;
11211;SDS011;5663;50.864;12.096;2023-09-30T04:48:56;7.33;;;2.97;;
11211;SDS011;5663;50.864;12.096;2023-09-30T04:51:24;4.20;;;2.97;;
11211;SDS011;5663;50.864;12.096;2023-09-30T04:53:52;4.90;;;3.13;;
11211;SDS011;5663;50.864;12.096;2023-09-30T04:56:21;7.73;;;3.10;;
11211;SDS011;5663;50.864;12.096;2023-09-30T04:58:48;6.20;;;3.20;;
11211;SDS011;5663;50.864;12.096;2023-09-30T05:01:16;4.63;;;2.60;;
11211;SDS011;5663;50.864;12.096;2023-09-30T05:03:46;5.33;;;3.00;;
11211;SDS011;5663;50.864;12.096;2023-09-30T05:06:15;6.17;;;3.27;;
11211;SDS011;5663;50.864;12.096;2023-09-30T05:08:43;5.53;;;3.10;;
11211;SDS011;5663;50.864;12.096;2023-09-30T05:11:10;7.90;;;3.40;;
11211;SDS011;5663;50.864;12.096;2023-09-30T05:13:38;8.03;;;3.60;;
11211;SDS011;5663;50.864;12.096;2023-09-30T05:16:06;6.47;;;2.97;;
11211;SDS011;5663;50.864;12.096;2023-09-30T05:18:34;5.37;;;3.70;;
11211;SDS011;5663;50.864;12.096;2023-09-30T05:21:04;7.20;;;3.10;;
11211;SDS011;5663;50.864;12.096;2023-09-30T05:23:32;5.40;;;2.50;;
11211;SDS011;5663;50.864;12.096;2023-09-30T05:26:00;7.13;;;2.70;;
11211;SDS011;5663;50.864;12.096;2023-09-30T05:28:28;5.87;;;2.77;;
11211;SDS011;5663;50.864;12.096;2023-09-30T05:30:55;6.83;;;3.00;;
11211;SDS011;5663;50.864;12.096;2023-09-30T05:33:23;6.70;;;2.93;;
11211;SDS011;5663;50.864;12.096;2023-09-30T05:35:54;4.23;;;3.13;;
11211;SDS011;5663;50.864;12.096;2023-09-30T05:38:23;5.70;;;2.87;;
11211;SDS011;5663;50.864;12.096;2023-09-30T05:40:53;7.60;;;2.87;;
11211;SDS011;5663;50.864;12.096;2023-09-30T05:43:21;6.20;;;2.93;;
11211;SDS011;5663;50.864;12.096;2023-09-30T05:45:49;6.70;;;3.53;;
11211;SDS011;5663;50.864;12.096;2023-09-30T05:48:20;5.80;;;2.90;;
11211;SDS011;5663;50.864;12.096;2023-09-30T05:50:49;4.10;;;2.77;;
11211;SDS011;5663;50.864;12.096;2023-09-30T05:53:17;7.40;;;3.30;;
11211;SDS011;5663;50.864;12.096;2023-09-30T05:55:48;9.90;;;3.40;;
11211;SDS011;5663;50.864;12.096;2023-09-30T05:58:16;4.20;;;2.63;;
11211;SDS011;5663;50.864;12.096;2023-09-30T06:00:44;4.63;;;3.03;;
11211;SDS011;5663;50.864;12.096;2023-09-30T06:03:12;14.00;;;2.80;;
11211;SDS011;5663;50.864;12.096;2023-09-30T06:05:40;6.20;;;3.33;;
11211;SDS011;5663;50.864;12.096;2023-09-30T06:08:09;8.97;;;3.63;;
11211;SDS011;5663;50.864;12.096;2023-09-30T06:10:39;6.43;;;3.00;;
11211;SDS011;5663;50.864;12.096;2023-09-30T06:13:11;4.63;;;2.60;;
11211;SDS011;5663;50.864;12.096;2023-09-30T06:15:41;4.23;;;2.83;;
11211;SDS011;5663;50.864;12.096;2023-09-30T06:18:12;7.23;;;3.07;;
11211;SDS011;5663;50.864;12.096;2023-09-30T06:20:40;4.17;;;2.70;;
11211;SDS011;5663;50.864;12.096;2023-09-30T06:23:08;4.17;;;2.83;;
11211;SDS011;5663;50.864;12.096;2023-09-30T06:25:37;10.10;;;2.43;;
11211;SDS011;5663;50.864;12.096;2023-09-30T06:28:05;4.80;;;3.27;;
11211;SDS011;5663;50.864;12.096;2023-09-30T06:30:35;5.40;;;2.73;;
11211;SDS011;5663;50.864;12.096;2023-09-30T06:33:03;5.70;;;2.93;;
11211;SDS011;5663;50.864;12.096;2023-09-30T06:35:34;4.00;;;2.60;;
11211;SDS011;5663;50.864;12.096;2023-09-30T06:38:04;4.27;;;2.80;;
11211;SDS011;5663;50.864;12.096;2023-09-30T06:40:33;4.43;;;2.67;;
11211;SDS011;5663;50.864;12.096;2023-09-30T06:43:01;3.17;;;2.47;;
11211;SDS011;5663;50.864;12.096;2023-09-30T06:45:28;6.80;;;3.00;;
11211;SDS011;5663;50.864;12.096;2023-09-30T06:47:59;8.33;;;2.80;;
11211;SDS011;5663;50.864;12.096;2023-09-30T06:50:27;7.13;;;3.30;;
11211;SDS011;5663;50.864;12.096;2023-09-30T06:52:55;3.67;;;2.50;;
11211;SDS011;5663;50.864;12.096;2023-09-30T06:55:22;5.67;;;2.57;;
11211;SDS011;5663;50.864;12.096;2023-09-30T06:57:52;7.50;;;3.10;;
11211;SDS011;5663;50.864;12.096;2023-09-30T07:00:20;7.60;;;3.30;;
11211;SDS011;5663;50.864;12.096;2023-09-30T07:02:48;5.60;;;2.80;;
11211;SDS011;5663;50.864;12.096;2023-09-30T07:05:18;7.57;;;2.90;;
11211;SDS011;5663;50.864;12.096;2023-09-30T07:07:47;5.47;;;3.00;;
11211;SDS011;5663;50.864;12.096;2023-09-30T07:10:16;7.90;;;2.90;;
11211;SDS011;5663;50.864;12.096;2023-09-30T07:12:44;8.70;;;3.40;;
11211;SDS011;5663;50.864;12.096;2023-09-30T07:15:12;6.57;;;3.43;;
11211;SDS011;5663;50.864;12.096;2023-09-30T07:17:40;4.90;;;3.20;;
11211;SDS011;5663;50.864;12.096;2023-09-30T07:20:08;3.07;;;2.63;;
11211;SDS011;5663;50.864;12.096;2023-09-30T07:22:38;5.20;;;3.27;;
11211;SDS011;5663;50.864;12.096;2023-09-30T07:25:06;8.27;;;2.73;;
11211;SDS011;5663;50.864;12.096;2023-09-30T07:27:35;8.10;;;3.70;;
11211;SDS011;5663;50.864;12.096;2023-09-30T07:30:03;5.60;;;3.20;;
11211;SDS011;5663;50.864;12.096;2023-09-30T07:32:32;5.53;;;2.80;;
11211;SDS011;5663;50.864;12.096;2023-09-30T07:35:00;6.97;;;3.13;;
11211;SDS011;5663;50.864;12.096;2023-09-30T07:37:28;6.30;;;2.77;;
11211;SDS011;5663;50.864;12.096;2023-09-30T07:39:57;6.17;;;2.80;;
11211;SDS011;5663;50.864;12.096;2023-09-30T07:42:26;6.00;;;3.03;;
11211;SDS011;5663;50.864;12.096;2023-09-30T07:44:53;6.93;;;3.00;;
11211;SDS011;5663;50.864;12.096;2023-09-30T07:47:21;5.70;;;2.87;;
11211;SDS011;5663;50.864;12.096;2023-09-30T07:49:49;4.73;;;3.03;;
11211;SDS011;5663;50.864;12.096;2023-09-30T07:52:17;7.00;;;2.73;;
11211;SDS011;5663;50.864;12.096;2023-09-30T07:54:45;8.60;;;3.20;;
11211;SDS011;5663;50.864;12.096;2023-09-30T07:57:14;4.73;;;2.83;;
11211;SDS011;5663;50.864;12.096;2023-09-30T07:59:42;5.67;;;2.70;;
11211;SDS011;5663;50.864;12.096;2023-09-30T08:02:10;3.37;;;2.30;;
11211;SDS011;5663;50.864;12.096;2023-09-30T08:04:38;6.00;;;2.70;;
11211;SDS011;5663;50.864;12.096;2023-09-30T08:07:06;6.83;;;3.03;;
11211;SDS011;5663;50.864;12.096;2023-09-30T08:09:36;4.40;;;2.67;;
11211;SDS011;5663;50.864;12.096;2023-09-30T08:12:06;10.77;;;4.40;;
11211;SDS011;5663;50.864;12.096;2023-09-30T08:14:40;5.83;;;3.37;;
11211;SDS011;5663;50.864;12.096;2023-09-30T08:17:11;4.83;;;2.63;;
11211;SDS011;5663;50.864;12.096;2023-09-30T08:19:43;5.63;;;2.57;;
11211;SDS011;5663;50.864;12.096;2023-09-30T08:22:15;6.43;;;2.80;;
11211;SDS011;5663;50.864;12.096;2023-09-30T08:24:44;6.03;;;2.90;;
11211;SDS011;5663;50.864;12.096;2023-09-30T08:27:12;4.23;;;2.70;;
11211;SDS011;5663;50.864;12.096;2023-09-30T08:29:41;7.87;;;3.03;;
11211;SDS011;5663;50.864;12.096;2023-09-30T08:32:09;6.07;;;3.03;;
11211;SDS011;5663;50.864;12.096;2023-09-30T08:34:37;7.43;;;3.03;;
11211;SDS011;5663;50.864;12.096;2023-09-30T08:37:05;6.60;;;3.30;;
11211;SDS011;5663;50.864;12.096;2023-09-30T08:39:37;8.00;;;3.13;;
11211;SDS011;5663;50.864;12.096;2023-09-30T08:42:06;6.27;;;3.03;;
11211;SDS011;5663;50.864;12.096;2023-09-30T08:44:37;6.00;;;2.80;;
11211;SDS011;5663;50.864;12.096;2023-09-30T08:47:07;8.40;;;2.87;;
11211;SDS011;5663;50.864;12.096;2023-09-30T08:49:37;7.97;;;2.60;;
11211;SDS011;5663;50.864;12.096;2023-09-30T08:52:05;7.30;;;2.70;;
11211;SDS011;5663;50.864;12.096;2023-09-30T08:54:33;8.90;;;2.80;;
11211;SDS011;5663;50.864;12.096;2023-09-30T08:57:01;8.27;;;3.20;;
11211;SDS011;5663;50.864;12.096;2023-09-30T08:59:31;9.40;;;2.83;;
11211;SDS011;5663;50.864;12.096;2023-09-30T09:02:02;6.33;;;2.30;;
11211;SDS011;5663;50.864;12.096;2023-09-30T09:04:36;4.93;;;2.40;;
11211;SDS011;5663;50.864;12.096;2023-09-30T09:07:05;6.23;;;2.40;;
11211;SDS011;5663;50.864;12.096;2023-09-30T09:09:32;8.33;;;2.93;;
11211;SDS011;5663;50.864;12.096;2023-09-30T09:12:01;10.67;;;3.10;;
11211;SDS011;5663;50.864;12.096;2023-09-30T09:14:38;8.33;;;2.60;;
11211;SDS011;5663;50.864;12.096;2023-09-30T09:17:07;10.37;;;2.43;;
11211;SDS011;5663;50.864;12.096;2023-09-30T09:19:39;8.57;;;2.57;;
11211;SDS011;5663;50.864;12.096;2023-09-30T09:22:08;8.43;;;2.70;;
11211;SDS011;5663;50.864;12.096;2023-09-30T09:24:36;7.90;;;2.50;;
11211;SDS011;5663;50.864;12.096;2023-09-30T09:27:06;8.30;;;2.40;;
11211;SDS011;5663;50.864;12.096;2023-09-30T09:29:36;8.37;;;2.50;;
11211;SDS011;5663;50.864;12.096;2023-09-30T09:32:08;8.27;;;2.57;;
11211;SDS011;5663;50.864;12.096;2023-09-30T09:34:38;5.97;;;2.50;;
11211;SDS011;5663;50.864;12.096;2023-09-30T09:37:14;5.83;;;2.33;;
11211;SDS011;5663;50.864;12.096;2023-09-30T09:39:52;7.93;;;2.20;;
11211;SDS011;5663;50.864;12.096;2023-09-30T09:42:25;5.53;;;2.07;;
11211;SDS011;5663;50.864;12.096;2023-09-30T09:44:55;5.37;;;2.13;;
11211;SDS011;5663;50.864;12.096;2023-09-30T09:47:24;6.77;;;2.20;;
11211;SDS011;5663;50.864;12.096;2023-09-30T09:49:55;7.87;;;2.30;;
11211;SDS011;5663;50.864;12.096;2023-09-30T09:52:25;7.40;;;2.20;;
11211;SDS011;5663;50.864;12.096;2023-09-30T09:54:54;7.93;;;3.00;;
11211;SDS011;5663;50.864;12.096;2023-09-30T09:57:24;6.63;;;2.87;;
11211;SDS011;5663;50.864;12.096;2023-09-30T09:59:55;7.27;;;2.80;;
11211;SDS011;5663;50.864;12.096;2023-09-30T10:02:24;7.37;;;2.60;;
11211;SDS011;5663;50.864;12.096;2023-09-30T10:04:56;6.23;;;2.00;;
11211;SDS011;5663;50.864;12.096;2023-09-30T10:07:25;8.57;;;2.27;;
11211;SDS011;5663;50.864;12.096;2023-09-30T10:09:55;3.13;;;1.83;;
11211;SDS011;5663;50.864;12.096;2023-09-30T10:12:27;5.37;;;2.70;;
11211;SDS011;5663;50.864;12.096;2023-09-30T10:18:10;5.27;;;2.10;;
11211;SDS011;5663;50.864;12.096;2023-09-30T10:21:08;3.20;;;1.83;;
11211;SDS011;5663;50.864;12.096;2023-09-30T10:23:38;4.37;;;2.13;;
11211;SDS011;5663;50.864;12.096;2023-09-30T10:26:13;6.47;;;2.27;;
11211;SDS011;5663;50.864;12.096;2023-09-30T10:28:43;5.40;;;2.00;;
11211;SDS011;5663;50.864;12.096;2023-09-30T10:31:13;6.57;;;2.20;;
11211;SDS011;5663;50.864;12.096;2023-09-30T10:36:50;3.10;;;1.70;;
11211;SDS011;5663;50.864;12.096;2023-09-30T10:51:14;2.63;;;1.60;;
11211;SDS011;5663;50.864;12.096;2023-09-30T10:53:46;4.50;;;1.93;;
11211;SDS011;5663;50.864;12.096;2023-09-30T10:56:17;5.13;;;2.30;;
11211;SDS011;5663;50.864;12.096;2023-09-30T10:58:46;6.50;;;2.20;;
11211;SDS011;5663;50.864;12.096;2023-09-30T11:01:15;7.22;;;2.42;;
11211;SDS011;5663;50.864;12.096;2023-09-30T11:03:44;5.10;;;1.98;;
11211;SDS011;5663;50.864;12.096;2023-09-30T11:06:13;3.78;;;1.63;;
11211;SDS011;5663;50.864;12.096;2023-09-30T11:08:54;5.15;;;2.15;;
11211;SDS011;5663;50.864;12.096;2023-09-30T11:11:35;6.10;;;2.03;;
11211;SDS011;5663;50.864;12.096;2023-09-30T11:14:18;5.90;;;2.08;;
11211;SDS011;5663;50.864;12.096;2023-09-30T11:16:46;4.38;;;1.90;;
11211;SDS011;5663;50.864;12.096;2023-09-30T11:19:15;4.90;;;2.28;;
11211;SDS011;5663;50.864;12.096;2023-09-30T11:21:45;3.50;;;1.70;;
11211;SDS011;5663;50.864;12.096;2023-09-30T11:24:14;4.38;;;1.75;;
11211;SDS011;5663;50.864;12.096;2023-09-30T11:26:43;4.47;;;1.70;;
11211;SDS011;5663;50.864;12.096;2023-09-30T11:29:11;4.82;;;2.13;;
11211;SDS011;5663;50.864;12.096;2023-09-30T11:31:42;3.63;;;1.85;;
11211;SDS011;5663;50.864;12.096;2023-09-30T11:34:12;5.93;;;2.15;;
11211;SDS011;5663;50.864;12.096;2023-09-30T11:36:47;6.40;;;1.98;;
11211;SDS011;5663;50.864;12.096;2023-09-30T11:39:23;3.25;;;1.67;;
11211;SDS011;5663;50.864;12.096;2023-09-30T11:41:51;4.13;;;1.77;;
11211;SDS011;5663;50.864;12.096;2023-09-30T11:44:21;3.28;;;1.90;;
11211;SDS011;5663;50.864;12.096;2023-09-30T11:46:49;3.30;;;1.60;;
11211;SDS011;5663;50.864;12.096;2023-09-30T11:49:26;4.60;;;1.88;;
11211;SDS011;5663;50.864;12.096;2023-09-30T11:51:59;4.22;;;1.90;;
11211;SDS011;5663;50.864;12.096;2023-09-30T11:54:32;2.67;;;1.55;;
11211;SDS011;5663;50.864;12.096;2023-09-30T11:57:03;3.97;;;1.80;;
11211;SDS011;5663;50.864;12.096;2023-09-30T11:59:30;3.85;;;1.75;;
11211;SDS011;5663;50.864;12.096;2023-09-30T12:01:59;4.65;;;1.70;;
11211;SDS011;5663;50.864;12.096;2023-09-30T12:04:27;5.30;;;1.80;;
11211;SDS011;5663;50.864;12.096;2023-09-30T12:06:55;3.47;;;1.77;;
11211;SDS011;5663;50.864;12.096;2023-09-30T12:09:23;3.78;;;1.60;;
11211;SDS011;5663;50.864;12.096;2023-09-30T12:11:55;3.63;;;2.05;;
11211;SDS011;5663;50.864;12.096;2023-09-30T12:14:23;3.05;;;1.40;;
11211;SDS011;5663;50.864;12.096;2023-09-30T12:16:51;2.80;;;1.52;;
11211;SDS011;5663;50.864;12.096;2023-09-30T12:19:19;3.45;;;1.70;;
11211;SDS011;5663;50.864;12.096;2023-09-30T12:21:47;4.38;;;1.58;;
11211;SDS011;5663;50.864;12.096;2023-09-30T12:24:16;4.13;;;1.50;;
11211;SDS011;5663;50.864;12.096;2023-09-30T12:26:48;3.90;;;1.80;;
11211;SDS011;5663;50.864;12.096;2023-09-30T12:29:19;4.47;;;1.70;;
11211;SDS011;5663;50.864;12.096;2023-09-30T12:31:51;2.72;;;1.63;;
11211;SDS011;5663;50.864;12.096;2023-09-30T12:34:19;3.13;;;1.70;;
11211;SDS011;5663;50.864;12.096;2023-09-30T12:36:49;4.57;;;1.98;;
11211;SDS011;5663;50.864;12.096;2023-09-30T12:39:17;3.83;;;1.60;;
11211;SDS011;5663;50.864;12.096;2023-09-30T12:41:49;4.85;;;1.58;;
11211;SDS011;5663;50.864;12.096;2023-09-30T12:44:19;3.90;;;1.67;;
11211;SDS011;5663;50.864;12.096;2023-09-30T12:46:48;3.05;;;1.90;;
11211;SDS011;5663;50.864;12.096;2023-09-30T12:49:16;4.18;;;1.70;;
11211;SDS011;5663;50.864;12.096;2023-09-30T12:51:44;6.15;;;2.00;;
11211;SDS011;5663;50.864;12.096;2023-09-30T12:54:13;5.30;;;1.80;;
11211;SDS011;5663;50.864;12.096;2023-09-30T12:56:44;3.20;;;1.85;;
11211;SDS011;5663;50.864;12.096;2023-09-30T12:59:13;5.00;;;1.70;;
11211;SDS011;5663;50.864;12.096;2023-09-30T13:01:42;3.45;;;1.80;;
11211;SDS011;5663;50.864;12.096;2023-09-30T13:04:11;5.22;;;1.80;;
11211;SDS011;5663;50.864;12.096;2023-09-30T13:06:38;3.95;;;1.40;;
11211;SDS011;5663;50.864;12.096;2023-09-30T13:09:06;3.20;;;1.55;;
11211;SDS011;5663;50.864;12.096;2023-09-30T13:11:35;2.65;;;1.40;;
11211;SDS011;5663;50.864;12.096;2023-09-30T13:14:02;2.28;;;1.60;;
11211;SDS011;5663;50.864;12.096;2023-09-30T13:16:30;3.78;;;1.60;;
11211;SDS011;5663;50.864;12.096;2023-09-30T13:18:59;3.33;;;1.80;;
11211;SDS011;5663;50.864;12.096;2023-09-30T13:21:27;4.95;;;1.52;;
11211;SDS011;5663;50.864;12.096;2023-09-30T13:23:55;2.42;;;1.48;;
11211;SDS011;5663;50.864;12.096;2023-09-30T13:26:23;3.45;;;1.63;;
11211;SDS011;5663;50.864;12.096;2023-09-30T13:28:52;2.63;;;1.38;;
11211;SDS011;5663;50.864;12.096;2023-09-30T13:31:19;5.63;;;2.17;;
11211;SDS011;5663;50.864;12.096;2023-09-30T13:33:47;3.15;;;1.80;;
11211;SDS011;5663;50.864;12.096;2023-09-30T13:36:16;4.50;;;1.77;;
11211;SDS011;5663;50.864;12.096;2023-09-30T13:38:44;4.20;;;1.73;;
11211;SDS011;5663;50.864;12.096;2023-09-30T13:41:13;2.25;;;1.52;;
11211;SDS011;5663;50.864;12.096;2023-09-30T13:43:42;4.85;;;1.88;;
11211;SDS011;5663;50.864;12.096;2023-09-30T13:46:09;3.85;;;1.80;;
11211;SDS011;5663;50.864;12.096;2023-09-30T13:48:39;3.58;;;1.40;;
11211;SDS011;5663;50.864;12.096;2023-09-30T13:51:07;3.55;;;1.40;;
11211;SDS011;5663;50.864;12.096;2023-09-30T13:53:38;4.28;;;1.90;;
11211;SDS011;5663;50.864;12.096;2023-09-30T13:56:06;3.10;;;1.70;;
11211;SDS011;5663;50.864;12.096;2023-09-30T13:58:36;4.38;;;1.73;;
11211;SDS011;5663;50.864;12.096;2023-09-30T14:01:04;4.60;;;1.70;;
11211;SDS011;5663;50.864;12.096;2023-09-30T14:03:32;4.18;;;1.60;;
11211;SDS011;5663;50.864;12.096;2023-09-30T14:06:01;2.70;;;1.48;;
11211;SDS011;5663;50.864;12.096;2023-09-30T14:08:35;4.65;;;1.80;;
11211;SDS011;5663;50.864;12.096;2023-09-30T14:11:05;4.63;;;1.90;;
11211;SDS011;5663;50.864;12.096;2023-09-30T14:13:33;4.32;;;1.50;;
11211;SDS011;5663;50.864;12.096;2023-09-30T14:16:01;2.58;;;1.30;;
11211;SDS011;5663;50.864;12.096;2023-09-30T14:18:31;3.70;;;1.38;;
11211;SDS011;5663;50.864;12.096;2023-09-30T14:21:00;4.77;;;1.70;;
11211;SDS011;5663;50.864;12.096;2023-09-30T14:23:31;4.07;;;1.55;;
11211;SDS011;5663;50.864;12.096;2023-09-30T14:25:59;3.67;;;1.98;;
11211;SDS011;5663;50.864;12.096;2023-09-30T14:28:33;4.53;;;2.25;;
11211;SDS011;5663;50.864;12.096;2023-09-30T14:31:02;5.05;;;1.70;;
11211;SDS011;5663;50.864;12.096;2023-09-30T14:33:36;3.28;;;1.50;;
11211;SDS011;5663;50.864;12.096;2023-09-30T14:36:06;7.83;;;1.67;;
11211;SDS011;5663;50.864;12.096;2023-09-30T14:38:35;13.85;;;2.90;;
11211;SDS011;5663;50.864;12.096;2023-09-30T14:41:06;14.95;;;2.30;;
11211;SDS011;5663;50.864;12.096;2023-09-30T14:43:36;8.17;;;2.13;;
11211;SDS011;5663;50.864;12.096;2023-09-30T14:46:05;4.07;;;1.70;;
11211;SDS011;5663;50.864;12.096;2023-09-30T14:48:35;4.93;;;1.83;;
11211;SDS011;5663;50.864;12.096;2023-09-30T14:51:04;4.80;;;2.03;;
11211;SDS011;5663;50.864;12.096;2023-09-30T14:53:34;3.70;;;1.80;;
11211;SDS011;5663;50.864;12.096;2023-09-30T14:56:02;3.27;;;1.80;;
11211;SDS011;5663;50.864;12.096;2023-09-30T14:58:32;3.85;;;1.90;;
11211;SDS011;5663;50.864;12.096;2023-09-30T15:01:09;5.13;;;2.40;;
11211;SDS011;5663;50.864;12.096;2023-09-30T15:03:38;4.63;;;1.98;;
11211;SDS011;5663;50.864;12.096;2023-09-30T15:06:08;5.83;;;1.67;;
11211;SDS011;5663;50.864;12.096;2023-09-30T15:08:38;3.37;;;1.70;;
11211;SDS011;5663;50.864;12.096;2023-09-30T15:11:12;3.60;;;1.83;;
11211;SDS011;5663;50.864;12.096;2023-09-30T15:13:42;3.17;;;1.70;;
11211;SDS011;5663;50.864;12.096;2023-09-30T15:16:18;7.73;;;2.03;;
11211;SDS011;5663;50.864;12.096;2023-09-30T15:18:48;3.30;;;1.47;;
11211;SDS011;5663;50.864;12.096;2023-09-30T15:21:17;5.87;;;2.00;;